sensor_id;sensor_type;location;lat;lon;timestamp;pressure;altitude;pressure_sealevel;temperature;humidity
71778;BME280;59609;52.430;4.668;2023-06-14T00:00:10;101567.56;;;17.41;89.81
71778;BME280;59609;52.430;4.668;2023-06-14T00:02:38;101570.09;;;17.36;90.42
71778;BME280;59609;52.430;4.668;2023-06-14T00:05:05;101578.63;;;17.35;90.16
71778;BME280;59609;52.430;4.668;2023-06-14T00:07:41;101580.59;;;17.34;89.35
71778;BME280;59609;52.430;4.668;2023-06-14T00:10:08;101570.41;;;17.27;90.45
71778;BME280;59609;52.430;4.668;2023-06-14T00:12:33;101571.84;;;17.23;90.14
71778;BME280;59609;52.430;4.668;2023-06-14T00:14:59;101572.22;;;17.20;90.27
71778;BME280;59609;52.430;4.668;2023-06-14T00:17:26;101568.56;;;17.19;90.57
71778;BME280;59609;52.430;4.668;2023-06-14T00:19:58;101570.09;;;17.22;89.98
71778;BME280;59609;52.430;4.668;2023-06-14T00:22:24;101563.38;;;17.16;90.45
71778;BME280;59609;52.430;4.668;2023-06-14T00:24:51;101572.59;;;17.17;90.15
71778;BME280;59609;52.430;4.668;2023-06-14T00:27:16;101567.22;;;17.15;89.87
71778;BME280;59609;52.430;4.668;2023-06-14T00:29:42;101566.00;;;17.18;89.68
71778;BME280;59609;52.430;4.668;2023-06-14T00:32:07;101567.22;;;17.15;90.58
71778;BME280;59609;52.430;4.668;2023-06-14T00:34:33;101557.63;;;17.03;89.96
71778;BME280;59609;52.430;4.668;2023-06-14T00:36:59;101572.78;;;17.15;89.47
71778;BME280;59609;52.430;4.668;2023-06-14T00:39:25;101565.69;;;17.13;89.75
71778;BME280;59609;52.430;4.668;2023-06-14T00:41:50;101568.38;;;17.06;89.59
71778;BME280;59609;52.430;4.668;2023-06-14T00:44:16;101566.06;;;17.10;88.92
71778;BME280;59609;52.430;4.668;2023-06-14T00:46:43;101564.53;;;17.07;89.09
71778;BME280;59609;52.430;4.668;2023-06-14T00:49:09;101564.94;;;17.04;89.30
71778;BME280;59609;52.430;4.668;2023-06-14T00:51:35;101573.47;;;17.03;89.03
71778;BME280;59609;52.430;4.668;2023-06-14T00:54:02;101565.50;;;16.99;88.99
71778;BME280;59609;52.430;4.668;2023-06-14T00:56:28;101570.41;;;16.97;89.39
71778;BME280;59609;52.430;4.668;2023-06-14T00:58:53;101571.63;;;16.95;89.82
71778;BME280;59609;52.430;4.668;2023-06-14T01:01:20;101571.53;;;16.88;89.91
71778;BME280;59609;52.430;4.668;2023-06-14T01:03:46;101572.38;;;16.89;89.11
71778;BME280;59609;52.430;4.668;2023-06-14T01:06:31;101567.03;;;16.87;88.78
71778;BME280;59609;52.430;4.668;2023-06-14T01:11:54;101570.56;;;16.81;89.34
71778;BME280;59609;52.430;4.668;2023-06-14T01:14:23;101574.03;;;16.83;88.72
71778;BME280;59609;52.430;4.668;2023-06-14T01:16:50;101574.03;;;16.83;88.50
71778;BME280;59609;52.430;4.668;2023-06-14T01:19:18;101569.72;;;16.81;88.52
71778;BME280;59609;52.430;4.668;2023-06-14T01:21:48;101565.75;;;16.75;88.64
71778;BME280;59609;52.430;4.668;2023-06-14T01:24:16;101563.34;;;16.72;88.95
71778;BME280;59609;52.430;4.668;2023-06-14T01:26:45;101573.59;;;16.72;88.56
71778;BME280;59609;52.430;4.668;2023-06-14T01:29:13;101567.56;;;16.68;88.76
71778;BME280;59609;52.430;4.668;2023-06-14T01:31:42;101572.28;;;16.68;88.14
71778;BME280;59609;52.430;4.668;2023-06-14T01:34:08;101572.94;;;16.70;87.73
71778;BME280;59609;52.430;4.668;2023-06-14T01:36:36;101565.84;;;16.67;87.69
71778;BME280;59609;52.430;4.668;2023-06-14T01:39:05;101569.69;;;16.66;87.43
71778;BME280;59609;52.430;4.668;2023-06-14T01:41:31;101569.84;;;16.65;87.87
71778;BME280;59609;52.430;4.668;2023-06-14T01:43:58;101572.47;;;16.66;87.10
71778;BME280;59609;52.430;4.668;2023-06-14T01:46:24;101584.63;;;16.65;87.70
71778;BME280;59609;52.430;4.668;2023-06-14T01:48:50;101569.69;;;16.66;87.42
71778;BME280;59609;52.430;4.668;2023-06-14T01:51:16;101569.84;;;16.65;87.01
71778;BME280;59609;52.430;4.668;2023-06-14T01:53:41;101572.63;;;16.65;86.62
71778;BME280;59609;52.430;4.668;2023-06-14T01:56:07;101565.53;;;16.62;86.35
71778;BME280;59609;52.430;4.668;2023-06-14T01:58:32;101583.09;;;16.63;87.16
71778;BME280;59609;52.430;4.668;2023-06-14T02:00:58;101575.78;;;16.62;85.92
71778;BME280;59609;52.430;4.668;2023-06-14T02:03:26;101582.22;;;16.62;85.61
71778;BME280;59609;52.430;4.668;2023-06-14T02:05:51;101583.59;;;16.66;85.64
71778;BME280;59609;52.430;4.668;2023-06-14T02:08:17;101566.22;;;16.64;85.54
71778;BME280;59609;52.430;4.668;2023-06-14T02:10:43;101580.25;;;16.71;84.44
71778;BME280;59609;52.430;4.668;2023-06-14T02:13:08;101580.03;;;16.72;84.88
71778;BME280;59609;52.430;4.668;2023-06-14T02:15:34;101576.78;;;16.69;85.64
71778;BME280;59609;52.430;4.668;2023-06-14T02:18:01;101574.97;;;16.61;85.57
71778;BME280;59609;52.430;4.668;2023-06-14T02:20:27;101551.84;;;16.53;86.17
71778;BME280;59609;52.430;4.668;2023-06-14T02:22:53;101566.81;;;16.52;85.97
71778;BME280;59609;52.430;4.668;2023-06-14T02:25:18;101568.44;;;16.46;86.04
71778;BME280;59609;52.430;4.668;2023-06-14T02:27:43;101564.13;;;16.43;86.42
71778;BME280;59609;52.430;4.668;2023-06-14T02:30:09;101571.97;;;16.40;86.61
71778;BME280;59609;52.430;4.668;2023-06-14T02:32:35;101563.81;;;16.38;86.83
71778;BME280;59609;52.430;4.668;2023-06-14T02:35:01;101552.56;;;16.32;86.82
71778;BME280;59609;52.430;4.668;2023-06-14T02:37:27;101565.38;;;16.41;86.27
71778;BME280;59609;52.430;4.668;2023-06-14T02:39:52;101569.19;;;16.40;85.22
71778;BME280;59609;52.430;4.668;2023-06-14T02:42:18;101561.88;;;16.39;85.28
71778;BME280;59609;52.430;4.668;2023-06-14T02:44:43;101568.59;;;16.44;84.67
71778;BME280;59609;52.430;4.668;2023-06-14T02:47:10;101567.69;;;16.52;83.96
71778;BME280;59609;52.430;4.668;2023-06-14T02:49:35;101559.81;;;16.41;83.89
71778;BME280;59609;52.430;4.668;2023-06-14T02:52:01;101570.56;;;16.44;84.61
71778;BME280;59609;52.430;4.668;2023-06-14T02:54:27;101574.56;;;16.41;83.68
71778;BME280;59609;52.430;4.668;2023-06-14T02:56:53;101577.91;;;16.37;84.04
71778;BME280;59609;52.430;4.668;2023-06-14T02:59:18;101576.38;;;16.34;84.31
71778;BME280;59609;52.430;4.668;2023-06-14T03:01:44;101583.84;;;16.34;84.41
71778;BME280;59609;52.430;4.668;2023-06-14T03:04:10;101585.66;;;16.27;85.47
71778;BME280;59609;52.430;4.668;2023-06-14T03:06:36;101583.91;;;16.26;85.31
71778;BME280;59609;52.430;4.668;2023-06-14T03:09:02;101601.13;;;16.21;85.86
71778;BME280;59609;52.430;4.668;2023-06-14T03:11:30;101597.19;;;16.16;86.63
71778;BME280;59609;52.430;4.668;2023-06-14T03:13:56;101585.81;;;16.03;87.02
71778;BME280;59609;52.430;4.668;2023-06-14T03:16:22;101597.44;;;16.06;88.29
71778;BME280;59609;52.430;4.668;2023-06-14T03:18:52;101592.25;;;16.03;87.92
71778;BME280;59609;52.430;4.668;2023-06-14T03:21:19;101601.47;;;16.04;87.98
71778;BME280;59609;52.430;4.668;2023-06-14T03:23:45;101605.28;;;16.03;87.48
71778;BME280;59609;52.430;4.668;2023-06-14T03:26:11;101599.91;;;16.01;87.24
71778;BME280;59609;52.430;4.668;2023-06-14T03:28:46;101612.88;;;16.09;86.66
71778;BME280;59609;52.430;4.668;2023-06-14T03:31:12;101610.44;;;16.14;86.13
71778;BME280;59609;52.430;4.668;2023-06-14T03:33:39;101606.44;;;16.08;86.46
71778;BME280;59609;52.430;4.668;2023-06-14T03:36:05;101615.84;;;16.07;86.19
71778;BME280;59609;52.430;4.668;2023-06-14T03:38:31;101604.09;;;15.97;86.74
71778;BME280;59609;52.430;4.668;2023-06-14T03:40:57;101624.75;;;16.03;87.38
71778;BME280;59609;52.430;4.668;2023-06-14T03:43:22;101610.53;;;15.98;87.04
71778;BME280;59609;52.430;4.668;2023-06-14T03:45:47;101628.91;;;15.98;87.63
71778;BME280;59609;52.430;4.668;2023-06-14T03:48:13;101621.16;;;15.94;87.79
71778;BME280;59609;52.430;4.668;2023-06-14T03:50:38;101626.34;;;15.97;87.68
71778;BME280;59609;52.430;4.668;2023-06-14T03:53:04;101625.47;;;15.96;87.77
71778;BME280;59609;52.430;4.668;2023-06-14T03:55:30;101632.91;;;16.04;87.11
71778;BME280;59609;52.430;4.668;2023-06-14T03:57:59;101621.97;;;16.03;87.17
71778;BME280;59609;52.430;4.668;2023-06-14T04:00:24;101632.53;;;16.07;87.02
71778;BME280;59609;52.430;4.668;2023-06-14T04:02:50;101633.53;;;16.14;86.40
71778;BME280;59609;52.430;4.668;2023-06-14T04:05:15;101637.66;;;16.18;85.83
71778;BME280;59609;52.430;4.668;2023-06-14T04:07:44;101635.38;;;16.22;85.75
71778;BME280;59609;52.430;4.668;2023-06-14T04:10:12;101637.28;;;16.21;85.86
71778;BME280;59609;52.430;4.668;2023-06-14T04:12:37;101648.06;;;16.24;86.17
71778;BME280;59609;52.430;4.668;2023-06-14T04:15:03;101639.72;;;16.24;86.60
71778;BME280;59609;52.430;4.668;2023-06-14T04:17:31;101644.59;;;16.22;86.52
71778;BME280;59609;52.430;4.668;2023-06-14T04:19:58;101642.31;;;16.26;85.57
71778;BME280;59609;52.430;4.668;2023-06-14T04:22:25;101653.06;;;16.29;86.44
71778;BME280;59609;52.430;4.668;2023-06-14T04:24:56;101648.88;;;16.33;nan
71778;BME280;59609;52.430;4.668;2023-06-14T04:27:25;101657.50;;;16.38;85.46
71778;BME280;59609;52.430;4.668;2023-06-14T04:29:55;101660.59;;;16.43;85.33
71778;BME280;59609;52.430;4.668;2023-06-14T04:32:25;101651.72;;;16.47;84.63
71778;BME280;59609;52.430;4.668;2023-06-14T04:34:55;101659.00;;;16.48;85.30
71778;BME280;59609;52.430;4.668;2023-06-14T04:37:21;101657.78;;;16.51;85.28
71778;BME280;59609;52.430;4.668;2023-06-14T04:39:47;101654.28;;;16.57;84.61
71778;BME280;59609;52.430;4.668;2023-06-14T04:42:13;101654.94;;;16.59;84.90
71778;BME280;59609;52.430;4.668;2023-06-14T04:44:41;101653.31;;;16.65;84.15
71778;BME280;59609;52.430;4.668;2023-06-14T04:47:09;101654.53;;;16.70;84.24
71778;BME280;59609;52.430;4.668;2023-06-14T04:49:34;101645.78;;;16.73;83.69
71778;BME280;59609;52.430;4.668;2023-06-14T04:52:00;101645.97;;;17.09;82.71
71778;BME280;59609;52.430;4.668;2023-06-14T04:54:26;101660.69;;;19.39;72.60
71778;BME280;59609;52.430;4.668;2023-06-14T04:56:52;101647.69;;;20.48;66.82
71778;BME280;59609;52.430;4.668;2023-06-14T04:59:18;101649.88;;;20.92;65.20
71778;BME280;59609;52.430;4.668;2023-06-14T05:01:44;101660.41;;;21.55;62.51
71778;BME280;59609;52.430;4.668;2023-06-14T05:04:17;101669.91;;;21.68;60.76
71778;BME280;59609;52.430;4.668;2023-06-14T05:06:42;101666.03;;;21.49;61.40
71778;BME280;59609;52.430;4.668;2023-06-14T05:09:10;101667.28;;;21.73;60.30
71778;BME280;59609;52.430;4.668;2023-06-14T05:11:36;101666.59;;;21.97;58.39
71778;BME280;59609;52.430;4.668;2023-06-14T05:14:01;101669.63;;;21.76;58.84
71778;BME280;59609;52.430;4.668;2023-06-14T05:16:26;101669.22;;;21.66;59.58
71778;BME280;59609;52.430;4.668;2023-06-14T05:18:52;101665.84;;;21.50;59.65
71778;BME280;59609;52.430;4.668;2023-06-14T05:21:18;101672.84;;;21.92;58.14
71778;BME280;59609;52.430;4.668;2023-06-14T05:23:44;101673.56;;;21.68;58.50
71778;BME280;59609;52.430;4.668;2023-06-14T05:26:10;101682.00;;;21.29;59.73
71778;BME280;59609;52.430;4.668;2023-06-14T05:28:36;101679.88;;;21.11;60.08
71778;BME280;59609;52.430;4.668;2023-06-14T05:31:01;101688.28;;;21.18;60.10
71778;BME280;59609;52.430;4.668;2023-06-14T05:33:27;101683.47;;;20.79;61.69
71778;BME280;59609;52.430;4.668;2023-06-14T05:35:52;101681.09;;;20.69;61.66
71778;BME280;59609;52.430;4.668;2023-06-14T05:38:18;101686.19;;;20.39;63.13
71778;BME280;59609;52.430;4.668;2023-06-14T05:40:43;101683.88;;;20.63;61.94
71778;BME280;59609;52.430;4.668;2023-06-14T05:43:09;101680.03;;;20.70;61.53
71778;BME280;59609;52.430;4.668;2023-06-14T05:45:35;101687.38;;;20.71;62.09
71778;BME280;59609;52.430;4.668;2023-06-14T05:48:01;101691.81;;;20.46;62.26
71778;BME280;59609;52.430;4.668;2023-06-14T05:50:26;101686.22;;;20.46;62.17
71778;BME280;59609;52.430;4.668;2023-06-14T05:52:52;101684.69;;;20.37;62.53
71778;BME280;59609;52.430;4.668;2023-06-14T05:55:18;101691.34;;;20.36;63.33
71778;BME280;59609;52.430;4.668;2023-06-14T05:57:43;101690.41;;;20.22;62.49
71778;BME280;59609;52.430;4.668;2023-06-14T06:00:09;101696.69;;;20.24;63.30
71778;BME280;59609;52.430;4.668;2023-06-14T06:02:36;101696.31;;;20.34;63.59
71778;BME280;59609;52.430;4.668;2023-06-14T06:05:02;101711.69;;;20.58;62.81
71778;BME280;59609;52.430;4.668;2023-06-14T06:07:34;101696.78;;;20.44;61.25
71778;BME280;59609;52.430;4.668;2023-06-14T06:09:59;101704.75;;;20.47;61.30
71778;BME280;59609;52.430;4.668;2023-06-14T06:12:25;101705.22;;;20.64;61.14
71778;BME280;59609;52.430;4.668;2023-06-14T06:14:50;101707.63;;;20.73;60.74
71778;BME280;59609;52.430;4.668;2023-06-14T06:17:16;101707.16;;;20.63;60.62
71778;BME280;59609;52.430;4.668;2023-06-14T06:19:41;101706.72;;;20.60;59.98
71778;BME280;59609;52.430;4.668;2023-06-14T06:22:06;101700.50;;;20.77;59.08
71778;BME280;59609;52.430;4.668;2023-06-14T06:24:33;101703.75;;;20.74;59.42
71778;BME280;59609;52.430;4.668;2023-06-14T06:27:01;101710.22;;;20.75;58.26
71778;BME280;59609;52.430;4.668;2023-06-14T06:29:27;101715.38;;;20.78;57.99
71778;BME280;59609;52.430;4.668;2023-06-14T06:31:52;101716.50;;;21.03;58.24
71778;BME280;59609;52.430;4.668;2023-06-14T06:34:18;101715.63;;;20.96;57.14
71778;BME280;59609;52.430;4.668;2023-06-14T06:36:43;101724.25;;;20.88;56.86
71778;BME280;59609;52.430;4.668;2023-06-14T06:39:08;101713.72;;;21.10;55.35
71778;BME280;59609;52.430;4.668;2023-06-14T06:41:38;101713.72;;;21.10;55.62
71778;BME280;59609;52.430;4.668;2023-06-14T06:44:05;101715.22;;;21.45;55.32
71778;BME280;59609;52.430;4.668;2023-06-14T06:46:32;101727.31;;;21.39;53.93
71778;BME280;59609;52.430;4.668;2023-06-14T06:48:57;101719.94;;;21.71;54.05
71778;BME280;59609;52.430;4.668;2023-06-14T06:51:22;101727.50;;;21.70;53.61
71778;BME280;59609;52.430;4.668;2023-06-14T06:53:52;101730.94;;;21.66;52.78
71778;BME280;59609;52.430;4.668;2023-06-14T06:56:18;101726.41;;;21.78;53.09
71778;BME280;59609;52.430;4.668;2023-06-14T06:58:44;101724.72;;;21.64;51.87
71778;BME280;59609;52.430;4.668;2023-06-14T07:01:10;101739.59;;;21.64;53.06
71778;BME280;59609;52.430;4.668;2023-06-14T07:03:36;101735.25;;;22.01;53.34
71778;BME280;59609;52.430;4.668;2023-06-14T07:06:01;101742.31;;;22.10;52.10
71778;BME280;59609;52.430;4.668;2023-06-14T07:08:27;101746.13;;;22.29;52.25
71778;BME280;59609;52.430;4.668;2023-06-14T07:10:52;101742.28;;;22.23;51.15
71778;BME280;59609;52.430;4.668;2023-06-14T07:13:18;101750.44;;;22.38;51.39
71778;BME280;59609;52.430;4.668;2023-06-14T07:15:43;101751.47;;;22.50;50.37
71778;BME280;59609;52.430;4.668;2023-06-14T07:18:08;101742.63;;;22.40;50.78
71778;BME280;59609;52.430;4.668;2023-06-14T07:20:34;101750.75;;;22.61;50.18
71778;BME280;59609;52.430;4.668;2023-06-14T07:23:00;101758.16;;;22.93;49.29
71778;BME280;59609;52.430;4.668;2023-06-14T07:25:25;101742.38;;;22.92;48.43
71778;BME280;59609;52.430;4.668;2023-06-14T07:27:51;101759.25;;;22.92;48.78
71778;BME280;59609;52.430;4.668;2023-06-14T07:30:16;101769.09;;;23.08;48.26
71778;BME280;59609;52.430;4.668;2023-06-14T07:32:42;101771.59;;;22.91;48.10
71778;BME280;59609;52.430;4.668;2023-06-14T07:35:07;101771.59;;;22.91;49.33
71778;BME280;59609;52.430;4.668;2023-06-14T07:37:33;101777.09;;;23.42;48.65
71778;BME280;59609;52.430;4.668;2023-06-14T07:39:58;101772.81;;;23.33;48.41
71778;BME280;59609;52.430;4.668;2023-06-14T07:42:23;101776.41;;;23.47;47.23
71778;BME280;59609;52.430;4.668;2023-06-14T07:44:49;101778.75;;;23.50;46.95
71778;BME280;59609;52.430;4.668;2023-06-14T07:47:16;101773.13;;;23.50;46.67
71778;BME280;59609;52.430;4.668;2023-06-14T07:49:41;101772.53;;;23.66;46.90
71778;BME280;59609;52.430;4.668;2023-06-14T07:52:07;101773.81;;;23.70;47.08
71778;BME280;59609;52.430;4.668;2023-06-14T07:54:32;101775.56;;;23.89;46.97
71778;BME280;59609;52.430;4.668;2023-06-14T07:56:58;101785.06;;;23.95;46.48
71778;BME280;59609;52.430;4.668;2023-06-14T07:59:25;101782.25;;;23.95;46.22
71778;BME280;59609;52.430;4.668;2023-06-14T08:01:51;101784.09;;;24.26;46.28
71778;BME280;59609;52.430;4.668;2023-06-14T08:04:16;101786.91;;;24.26;46.70
71778;BME280;59609;52.430;4.668;2023-06-14T08:06:42;101789.72;;;24.26;45.48
71778;BME280;59609;52.430;4.668;2023-06-14T08:09:11;101791.69;;;24.43;45.49
71778;BME280;59609;52.430;4.668;2023-06-14T08:11:37;101780.63;;;24.42;44.33
71778;BME280;59609;52.430;4.668;2023-06-14T08:14:03;101803.19;;;24.42;44.33
71778;BME280;59609;52.430;4.668;2023-06-14T08:16:29;101795.47;;;23.94;43.47
71778;BME280;59609;52.430;4.668;2023-06-14T08:18:55;101799.22;;;24.31;42.62
71778;BME280;59609;52.430;4.668;2023-06-14T08:21:20;101804.53;;;24.21;43.45
71778;BME280;59609;52.430;4.668;2023-06-14T08:23:46;101797.38;;;24.73;42.49
71778;BME280;59609;52.430;4.668;2023-06-14T08:26:11;101800.22;;;24.91;42.88
71778;BME280;59609;52.430;4.668;2023-06-14T08:28:36;101790.50;;;24.33;41.61
71778;BME280;59609;52.430;4.668;2023-06-14T08:31:02;101796.75;;;24.53;41.73
71778;BME280;59609;52.430;4.668;2023-06-14T08:33:27;101792.63;;;24.37;42.65
71778;BME280;59609;52.430;4.668;2023-06-14T08:35:53;101793.59;;;24.97;42.26
71778;BME280;59609;52.430;4.668;2023-06-14T08:38:18;101791.28;;;25.36;41.01
71778;BME280;59609;52.430;4.668;2023-06-14T08:40:48;101784.25;;;25.27;40.19
71778;BME280;59609;52.430;4.668;2023-06-14T08:43:15;101792.41;;;25.35;40.33
71778;BME280;59609;52.430;4.668;2023-06-14T08:45:41;101798.38;;;25.27;40.99
71778;BME280;59609;52.430;4.668;2023-06-14T08:48:07;101789.78;;;25.22;41.36
71778;BME280;59609;52.430;4.668;2023-06-14T08:50:33;101796.50;;;25.50;40.34
71778;BME280;59609;52.430;4.668;2023-06-14T08:53:01;101792.25;;;25.30;40.72
71778;BME280;59609;52.430;4.668;2023-06-14T08:55:29;101790.28;;;25.72;40.41
71778;BME280;59609;52.430;4.668;2023-06-14T08:57:55;101790.00;;;25.50;40.65
71778;BME280;59609;52.430;4.668;2023-06-14T09:00:25;101787.22;;;25.96;38.81
71778;BME280;59609;52.430;4.668;2023-06-14T09:02:52;101794.59;;;25.74;39.32
71778;BME280;59609;52.430;4.668;2023-06-14T09:05:23;101784.13;;;26.44;38.60
71778;BME280;59609;52.430;4.668;2023-06-14T09:07:49;101785.00;;;26.45;38.63
71778;BME280;59609;52.430;4.668;2023-06-14T09:10:16;101792.03;;;26.31;38.51
71778;BME280;59609;52.430;4.668;2023-06-14T09:12:41;101792.34;;;26.46;38.28
71778;BME280;59609;52.430;4.668;2023-06-14T09:15:08;101791.00;;;26.48;37.77
71778;BME280;59609;52.430;4.668;2023-06-14T09:17:38;101801.19;;;26.61;37.96
71778;BME280;59609;52.430;4.668;2023-06-14T09:20:05;101802.00;;;26.22;36.56
71778;BME280;59609;52.430;4.668;2023-06-14T09:22:32;101804.84;;;26.85;35.48
71778;BME280;59609;52.430;4.668;2023-06-14T09:24:58;101797.03;;;26.52;36.08
71778;BME280;59609;52.430;4.668;2023-06-14T09:27:25;101799.88;;;27.20;36.17
71778;BME280;59609;52.430;4.668;2023-06-14T09:29:51;101808.13;;;27.22;34.91
71778;BME280;59609;52.430;4.668;2023-06-14T09:32:17;101800.38;;;26.89;34.07
71778;BME280;59609;52.430;4.668;2023-06-14T09:34:42;101798.59;;;26.59;34.33
71778;BME280;59609;52.430;4.668;2023-06-14T09:37:08;101802.63;;;26.75;34.49
71778;BME280;59609;52.430;4.668;2023-06-14T09:39:33;101793.47;;;26.96;33.28
71778;BME280;59609;52.430;4.668;2023-06-14T09:41:59;101798.88;;;27.43;33.87
71778;BME280;59609;52.430;4.668;2023-06-14T09:44:25;101812.53;;;28.07;34.16
71778;BME280;59609;52.430;4.668;2023-06-14T09:46:55;101809.09;;;27.16;33.06
71778;BME280;59609;52.430;4.668;2023-06-14T09:49:21;101805.72;;;27.75;33.55
71778;BME280;59609;52.430;4.668;2023-06-14T09:51:50;101815.59;;;27.89;33.21
71778;BME280;59609;52.430;4.668;2023-06-14T09:54:16;101817.47;;;27.67;33.18
71778;BME280;59609;52.430;4.668;2023-06-14T09:56:47;101807.00;;;27.23;33.08
71778;BME280;59609;52.430;4.668;2023-06-14T09:59:16;101812.53;;;28.07;33.43
71778;BME280;59609;52.430;4.668;2023-06-14T10:01:44;101819.78;;;27.70;32.28
71778;BME280;59609;52.430;4.668;2023-06-14T10:04:13;101822.44;;;27.93;33.00
71778;BME280;59609;52.430;4.668;2023-06-14T10:06:42;101818.16;;;27.57;32.62
71778;BME280;59609;52.430;4.668;2023-06-14T10:09:09;101824.50;;;27.48;31.72
71778;BME280;59609;52.430;4.668;2023-06-14T10:11:34;101827.34;;;27.65;31.48
71778;BME280;59609;52.430;4.668;2023-06-14T10:14:02;101824.22;;;27.49;32.01
71778;BME280;59609;52.430;4.668;2023-06-14T10:17:03;101822.56;;;27.65;32.47
71778;BME280;59609;52.430;4.668;2023-06-14T10:19:36;101828.25;;;27.08;31.61
71778;BME280;59609;52.430;4.668;2023-06-14T10:22:08;101828.53;;;27.24;30.82
71778;BME280;59609;52.430;4.668;2023-06-14T10:24:42;101829.56;;;27.62;31.57
71778;BME280;59609;52.430;4.668;2023-06-14T10:27:08;101822.28;;;27.67;32.16
71778;BME280;59609;52.430;4.668;2023-06-14T10:32:17;101816.09;;;28.20;31.74
71778;BME280;59609;52.430;4.668;2023-06-14T10:34:44;101805.63;;;28.20;31.46
71778;BME280;59609;52.430;4.668;2023-06-14T10:37:13;101814.41;;;28.19;31.80
71778;BME280;59609;52.430;4.668;2023-06-14T10:39:40;101814.97;;;28.04;31.15
71778;BME280;59609;52.430;4.668;2023-06-14T10:42:06;101821.50;;;28.38;30.76
71778;BME280;59609;52.430;4.668;2023-06-14T10:44:38;101830.44;;;27.96;31.62
71778;BME280;59609;52.430;4.668;2023-06-14T10:47:10;101826.75;;;28.12;31.57
71778;BME280;59609;52.430;4.668;2023-06-14T10:49:47;101828.97;;;28.27;32.03
71778;BME280;59609;52.430;4.668;2023-06-14T10:52:21;101826.78;;;28.51;30.95
71778;BME280;59609;52.430;4.668;2023-06-14T10:57:43;101836.50;;;28.55;31.11
71778;BME280;59609;52.430;4.668;2023-06-14T11:00:11;101821.47;;;28.76;30.51
71778;BME280;59609;52.430;4.668;2023-06-14T11:03:18;101832.63;;;28.83;30.87
71778;BME280;59609;52.430;4.668;2023-06-14T11:10:43;101832.06;;;28.64;30.47
71778;BME280;59609;52.430;4.668;2023-06-14T11:13:09;101832.25;;;28.74;30.21
71778;BME280;59609;52.430;4.668;2023-06-14T11:15:36;101833.88;;;28.70;31.65
71778;BME280;59609;52.430;4.668;2023-06-14T11:18:06;101831.44;;;29.22;31.42
71778;BME280;59609;52.430;4.668;2023-06-14T11:20:33;101827.16;;;28.98;30.54
71778;BME280;59609;52.430;4.668;2023-06-14T11:23:01;101826.56;;;29.23;30.31
71778;BME280;59609;52.430;4.668;2023-06-14T11:25:27;101819.72;;;28.92;31.58
71778;BME280;59609;52.430;4.668;2023-06-14T11:27:56;101827.06;;;29.36;30.68
71778;BME280;59609;52.430;4.668;2023-06-14T11:30:23;101813.66;;;29.10;29.83
71778;BME280;59609;52.430;4.668;2023-06-14T11:32:49;101821.25;;;29.53;29.80
71778;BME280;59609;52.430;4.668;2023-06-14T11:35:16;101811.88;;;29.26;30.42
71778;BME280;59609;52.430;4.668;2023-06-14T11:37:42;101818.97;;;29.82;30.86
71778;BME280;59609;52.430;4.668;2023-06-14T11:40:10;101811.53;;;30.07;29.92
71778;BME280;59609;52.430;4.668;2023-06-14T11:42:37;101818.41;;;30.17;30.51
71778;BME280;59609;52.430;4.668;2023-06-14T11:45:04;101810.88;;;29.37;29.75
71778;BME280;59609;52.430;4.668;2023-06-14T11:47:35;101816.28;;;29.17;31.16
71778;BME280;59609;52.430;4.668;2023-06-14T11:50:01;101809.22;;;29.41;31.25
71778;BME280;59609;52.430;4.668;2023-06-14T11:52:27;101817.75;;;29.73;29.67
71778;BME280;59609;52.430;4.668;2023-06-14T11:54:53;101804.81;;;29.55;29.89
71778;BME280;59609;52.430;4.668;2023-06-14T11:57:19;101809.09;;;29.84;28.51
71778;BME280;59609;52.430;4.668;2023-06-14T11:59:45;101808.63;;;30.02;28.55
71778;BME280;59609;52.430;4.668;2023-06-14T12:02:15;101807.25;;;30.42;28.99
71778;BME280;59609;52.430;4.668;2023-06-14T12:04:42;101810.28;;;29.93;29.00
71778;BME280;59609;52.430;4.668;2023-06-14T12:07:10;101809.06;;;30.21;28.97
71778;BME280;59609;52.430;4.668;2023-06-14T12:12:22;101812.78;;;30.22;28.94
71778;BME280;59609;52.430;4.668;2023-06-14T12:14:48;101818.00;;;30.40;28.12
71778;BME280;59609;52.430;4.668;2023-06-14T12:17:17;101822.00;;;29.43;28.72
71778;BME280;59609;52.430;4.668;2023-06-14T12:19:43;101813.97;;;29.89;27.98
71778;BME280;59609;52.430;4.668;2023-06-14T12:22:10;101815.41;;;29.96;28.06
71778;BME280;59609;52.430;4.668;2023-06-14T12:24:35;101809.88;;;30.17;29.28
71778;BME280;59609;52.430;4.668;2023-06-14T12:27:01;101816.56;;;30.32;28.60
71778;BME280;59609;52.430;4.668;2023-06-14T12:29:30;101814.97;;;29.78;28.59
71778;BME280;59609;52.430;4.668;2023-06-14T12:31:56;101814.59;;;29.69;28.73
71778;BME280;59609;52.430;4.668;2023-06-14T12:34:25;101827.16;;;29.46;28.35
71778;BME280;59609;52.430;4.668;2023-06-14T12:36:55;101823.41;;;29.68;29.11
71778;BME280;59609;52.430;4.668;2023-06-14T12:39:20;101814.06;;;30.04;28.46
71778;BME280;59609;52.430;4.668;2023-06-14T12:41:46;101816.31;;;29.70;27.63
71778;BME280;59609;52.430;4.668;2023-06-14T12:44:12;101813.38;;;29.60;28.63
71778;BME280;59609;52.430;4.668;2023-06-14T12:46:38;101815.41;;;29.96;29.10
71778;BME280;59609;52.430;4.668;2023-06-14T12:49:10;101817.16;;;29.71;29.44
71778;BME280;59609;52.430;4.668;2023-06-14T12:51:40;101809.81;;;29.75;28.30
71778;BME280;59609;52.430;4.668;2023-06-14T12:54:05;101818.91;;;30.40;29.18
71778;BME280;59609;52.430;4.668;2023-06-14T12:56:31;101811.25;;;29.77;28.32
71778;BME280;59609;52.430;4.668;2023-06-14T12:58:56;101822.44;;;30.21;28.23
71778;BME280;59609;52.430;4.668;2023-06-14T13:01:22;101812.19;;;30.20;28.08
71778;BME280;59609;52.430;4.668;2023-06-14T13:03:47;101810.25;;;30.30;28.84